Terminal Aerodrome Forecast
Issued by NWS

Home | Current Version | Previous Version | Text Only | Print | Product List | Glossary On
Versions: 1 2 3 4 5 6 7 8 9 10 11 12 13 14 15 16 17 18 19 20 21 22 23 24
000
FTUS44 KBMX 152340
TAFEET
TAF
KEET 152340Z 1600/1624 16006KT P6SM FEW060 SCT250
     FM160100 15002KT P6SM SCT250
     FM161100 17003KT P6SM SCT006 OVC012
     FM161500 20005KT P6SM BKN030
     FM161700 20006KT P6SM BKN050 PROB30 1618/1624 6SM -TSRA
      BKN040CB=

USA.gov is the U.S. government's official web portal to all federal, state and local government web resources and services.